Noack, Texas
Current Conditions -  °F | °C
As of 1:55 AM on Tuesday 21 Oct 2014 (Local Time) from KGRK Reporting Station
Few Clouds Few Clouds  
Wind Chill: 64°   Ceiling: Unl
Heat Index: 64°   Visibility: 7mi
Dew Point: 57°   Wind: 0mph
Humidity: 77%   Direction: NA
Pressure: 30.05"   Gusts: NA
Location:  30.5793°N, 97.5096°W
Report Text: KGRK 210655Z 00000KT 7SM FEW200 18/14 A3005 RMK SLP173
Loading
Personal Weather Stations






























Interactive Weather Map
Tropical Storm Tracking
New forecast layout! Learn more

10-Day Weather Forecast

Advertisements
Track Severe Weather on mobile